Kezdőlap
METAR-TAF:

METAR-TAF

Repülőterek :

Szegedi repülőtér

Szeged, Magyarország

földrajzi szélesség: 46-15N, földrajzi hosszúság: 020-06E, magasság: 82 m

Jelenlegi meteorológiai megfigyelések

A jelentés 1 órával és 4 perccel ezelõtt készült, 01:45 UTC
Északnyugati szél 4 kt
Hőmérséklet 17°C
Páratartalom 82%
Légköri nyomás 1015 hPa
Látótávolság 10 km, vagy több
felhőtlen 1500 m magasságban, és nincs gomolyfelhõ

METAR: LHUD 210145Z 32004KT CAVOK 17/14 Q1015

Idő: 04:49 (02:49 UTC)


TAF: hiányzik

Meteorológiai megfigyelések és előrejelzések több, mint 4000 repülőtéren (METAR és TAF jelentéseket).

A térképen piros és sárga pontok jelzik az elérhető meteorológiai állomásokat.

Mozgassa az egeret a pont fölött, hogy megjelenjen az állomás neve.

Azután kattintson az időjárási megfigyelések és előrejelzések megtekintéséhez.

A térkép megváltoztatása: kattintson a fekete keresztel jelölt zöld gombra ráközelítéshez, a vonallal jelölt zöld gombra távolításhoz, vagy a zöld nyilakra a szomszédos térképek eléréséhez.


METAR-TAF: